Time;durP1;ratioP1;P1;durP2;ratioP2;P2;SDS_P1;SDS_P2;PMS_P1;PMS_P2;Temp;Humidity;BMP_temperature;BMP_pressure;BME280_temperature;BME280_humidity;BME280_pressure;Samples;Min_cycle;Max_cycle;Signal;HPM_P1;HPM_P2
2023/08/31 00:00:55;;;;;;;;;;;23.80;51.90;;;;;;3053024;19;4593;-25
2023/08/31 00:01:55;;;;;;;;;;;23.70;51.70;;;;;;3052512;19;5098;-27
2023/08/31 00:02:56;;;;;;;;;;;23.80;51.90;;;;;;3053342;19;4584;-28
2023/08/31 00:03:57;;;;;;;;;;;23.80;51.80;;;;;;3053599;19;4610;-26
2023/08/31 00:04:58;;;;;;;;;;;23.80;52.60;;;;;;3054588;19;4602;-25
2023/08/31 00:06:01;;;;;;;;;;;23.80;51.70;;;;;;3054276;19;4625;-25
2023/08/31 00:07:02;;;;;;;;;;;23.70;51.60;;;;;;3053572;19;4612;-28
2023/08/31 00:08:02;;;;;;;;;;;23.90;51.90;;;;;;3052764;19;4523;-26
2023/08/31 00:09:05;;;;;;;;;;;23.70;51.70;;;;;;3054299;19;4619;-25
2023/08/31 00:10:09;;;;;;;;;;;23.70;51.70;;;;;;3053866;19;4632;-25
2023/08/31 00:11:09;;;;;;;;;;;23.70;51.70;;;;;;3053199;19;4731;-25
2023/08/31 00:12:10;;;;;;;;;;;23.70;51.70;;;;;;3053244;19;4766;-28
2023/08/31 00:13:12;;;;;;;;;;;23.70;51.70;;;;;;3054447;19;4702;-25
2023/08/31 00:14:12;;;;;;;;;;;23.70;51.60;;;;;;3054231;19;4650;-26
2023/08/31 00:15:13;;;;;;;;;;;23.70;51.70;;;;;;3054148;19;4654;-27
2023/08/31 00:16:14;;;;;;;;;;;23.70;51.80;;;;;;3054347;19;4654;-25
2023/08/31 00:17:14;;;;;;;;;;;23.70;51.70;;;;;;3052567;19;4695;-27
2023/08/31 00:18:16;;;;;;;;;;;23.70;51.70;;;;;;3054160;19;4644;-30
2023/08/31 00:19:17;;;;;;;;;;;23.70;51.70;;;;;;3054542;19;4703;-24
2023/08/31 00:20:17;;;;;;;;;;;23.70;51.70;;;;;;3054422;19;4654;-26
2023/08/31 00:21:18;;;;;;;;;;;23.70;51.70;;;;;;3054625;19;4888;-27
2023/08/31 00:22:19;;;;;;;;;;;23.70;51.60;;;;;;3054316;19;4642;-25
2023/08/31 00:23:19;;;;;;;;;;;23.70;51.80;;;;;;3054081;19;4758;-24
2023/08/31 00:24:21;;;;;;;;;;;23.70;51.70;;;;;;3054403;19;4805;-25
2023/08/31 00:25:22;;;;;;;;;;;23.70;51.70;;;;;;3053717;19;4558;-25
2023/08/31 00:26:23;;;;;;;;;;;23.70;51.60;;;;;;3054086;19;4660;-25
2023/08/31 00:27:23;;;;;;;;;;;23.70;51.70;;;;;;3053711;19;4871;-27
2023/08/31 00:28:25;;;;;;;;;;;23.70;51.70;;;;;;3053877;19;4647;-27
2023/08/31 00:29:26;;;;;;;;;;;23.70;51.50;;;;;;3053921;19;4695;-25
2023/08/31 00:30:29;;;;;;;;;;;23.70;51.60;;;;;;3053866;19;4697;-25
2023/08/31 00:31:30;;;;;;;;;;;23.70;51.50;;;;;;3053417;19;4770;-26
2023/08/31 00:32:33;;;;;;;;;;;23.60;51.30;;;;;;3054066;19;4810;-25
2023/08/31 00:33:34;;;;;;;;;;;23.70;51.40;;;;;;3054138;19;4698;-25
2023/08/31 00:34:35;;;;;;;;;;;23.50;51.30;;;;;;3054308;19;4820;-26
2023/08/31 00:35:35;;;;;;;;;;;23.60;51.20;;;;;;3053315;19;4720;-28
2023/08/31 00:36:38;;;;;;;;;;;23.60;51.30;;;;;;3053892;19;4810;-27
2023/08/31 00:37:38;;;;;;;;;;;23.60;51.30;;;;;;3054200;19;4717;-27
2023/08/31 00:38:39;;;;;;;;;;;23.60;51.20;;;;;;3054275;19;4676;-25
2023/08/31 00:39:40;;;;;;;;;;;23.60;51.30;;;;;;3053655;19;4643;-25
2023/08/31 00:40:42;;;;;;;;;;;23.60;51.30;;;;;;3054180;19;4544;-27
2023/08/31 00:41:45;;;;;;;;;;;23.60;51.50;;;;;;3054635;19;4661;-26
2023/08/31 00:42:46;;;;;;;;;;;23.60;51.30;;;;;;3052677;19;5187;-24
2023/08/31 00:43:47;;;;;;;;;;;23.60;51.40;;;;;;3051799;19;4651;-26
2023/08/31 00:44:48;;;;;;;;;;;23.60;51.40;;;;;;3054287;19;4695;-27
2023/08/31 00:45:50;;;;;;;;;;;23.60;51.40;;;;;;3054335;19;4759;-28
2023/08/31 00:46:51;;;;;;;;;;;23.60;51.50;;;;;;3053086;19;4817;-26
2023/08/31 00:47:52;;;;;;;;;;;23.60;51.30;;;;;;3052616;19;4677;-27
2023/08/31 00:48:54;;;;;;;;;;;23.60;51.30;;;;;;3053184;19;4657;-26
2023/08/31 00:49:54;;;;;;;;;;;23.60;51.20;;;;;;3053083;19;4705;-27
2023/08/31 00:50:55;;;;;;;;;;;23.60;51.20;;;;;;3052594;19;4619;-26
2023/08/31 00:51:56;;;;;;;;;;;23.60;51.30;;;;;;3051797;19;4572;-26
2023/08/31 00:52:57;;;;;;;;;;;23.60;51.30;;;;;;3052465;19;4663;-27
2023/08/31 00:53:58;;;;;;;;;;;23.60;51.40;;;;;;3053014;19;4601;-31
2023/08/31 00:54:59;;;;;;;;;;;23.60;51.30;;;;;;3053025;19;4598;-31
2023/08/31 00:56:00;;;;;;;;;;;23.60;51.40;;;;;;3051997;19;4662;-31
2023/08/31 00:57:01;;;;;;;;;;;23.60;51.20;;;;;;3053074;19;4594;-34
2023/08/31 00:58:01;;;;;;;;;;;23.60;51.20;;;;;;3054042;19;4721;-33
2023/08/31 00:59:02;;;;;;;;;;;23.60;51.20;;;;;;3053736;19;4789;-31
2023/08/31 01:00:06;;;;;;;;;;;23.60;51.30;;;;;;3054087;19;4631;-31
